sensor_id;sensor_type;location;lat;lon;timestamp;pressure;altitude;pressure_sealevel;temperature;humidity
63903;BME280;50072;50.678;13.938;2023-05-12T00:01:29;99522.59;;;12.83;74.59
63903;BME280;50072;50.678;13.938;2023-05-12T00:03:55;99510.84;;;12.86;74.14
63903;BME280;50072;50.678;13.938;2023-05-12T00:06:21;99515.44;;;12.82;73.87
63903;BME280;50072;50.678;13.938;2023-05-12T00:08:47;99518.81;;;12.64;74.82
63903;BME280;50072;50.678;13.938;2023-05-12T00:11:14;99522.22;;;12.69;75.21
63903;BME280;50072;50.678;13.938;2023-05-12T00:13:40;99524.00;;;12.68;74.88
63903;BME280;50072;50.678;13.938;2023-05-12T00:16:06;99516.13;;;12.64;75.20
63903;BME280;50072;50.678;13.938;2023-05-12T00:18:32;99513.59;;;12.59;76.01
63903;BME280;50072;50.678;13.938;2023-05-12T00:20:57;99508.34;;;12.56;77.38
63903;BME280;50072;50.678;13.938;2023-05-12T00:23:24;99510.97;;;12.57;77.38
63903;BME280;50072;50.678;13.938;2023-05-12T00:25:49;99515.50;;;12.55;77.56
63903;BME280;50072;50.678;13.938;2023-05-12T00:28:17;99514.66;;;12.55;77.62
63903;BME280;50072;50.678;13.938;2023-05-12T00:30:44;99518.47;;;12.48;77.10
63903;BME280;50072;50.678;13.938;2023-05-12T00:33:10;99512.38;;;12.42;76.74
63903;BME280;50072;50.678;13.938;2023-05-12T00:35:36;99509.06;;;12.36;77.48
63903;BME280;50072;50.678;13.938;2023-05-12T00:38:02;99521.44;;;12.40;77.77
63903;BME280;50072;50.678;13.938;2023-05-12T00:40:27;99522.09;;;12.47;77.97
63903;BME280;50072;50.678;13.938;2023-05-12T00:42:53;99521.00;;;12.52;78.46
63903;BME280;50072;50.678;13.938;2023-05-12T00:45:19;99521.00;;;12.52;77.52
63903;BME280;50072;50.678;13.938;2023-05-12T00:47:46;99513.91;;;12.51;77.03
63903;BME280;50072;50.678;13.938;2023-05-12T00:50:12;99516.53;;;12.53;77.40
63903;BME280;50072;50.678;13.938;2023-05-12T00:52:38;99513.91;;;12.51;77.38
63903;BME280;50072;50.678;13.938;2023-05-12T00:55:04;99517.22;;;12.58;78.33
63903;BME280;50072;50.678;13.938;2023-05-12T00:57:32;99515.38;;;12.60;77.34
63903;BME280;50072;50.678;13.938;2023-05-12T00:59:58;99516.00;;;12.67;77.42
63903;BME280;50072;50.678;13.938;2023-05-12T01:02:23;99513.66;;;12.57;77.55
63903;BME280;50072;50.678;13.938;2023-05-12T01:04:49;99511.91;;;12.56;78.07
63903;BME280;50072;50.678;13.938;2023-05-12T01:07:19;99513.78;;;12.54;78.73
63903;BME280;50072;50.678;13.938;2023-05-12T01:09:46;99514.81;;;12.50;78.71
63903;BME280;50072;50.678;13.938;2023-05-12T01:12:11;99505.13;;;12.46;78.61
63903;BME280;50072;50.678;13.938;2023-05-12T01:14:37;99503.25;;;12.48;79.13
63903;BME280;50072;50.678;13.938;2023-05-12T01:17:09;99511.22;;;12.50;79.15
63903;BME280;50072;50.678;13.938;2023-05-12T01:22:11;99508.53;;;12.51;78.71
63903;BME280;50072;50.678;13.938;2023-05-12T01:24:53;99512.75;;;12.58;78.87
63903;BME280;50072;50.678;13.938;2023-05-12T01:27:20;99513.72;;;12.56;78.83
63903;BME280;50072;50.678;13.938;2023-05-12T01:29:47;99510.91;;;12.34;78.76
63903;BME280;50072;50.678;13.938;2023-05-12T01:32:14;99512.56;;;12.38;79.08
63903;BME280;50072;50.678;13.938;2023-05-12T01:34:42;99511.13;;;12.28;78.78
63903;BME280;50072;50.678;13.938;2023-05-12T01:37:09;99509.47;;;12.23;78.82
63903;BME280;50072;50.678;13.938;2023-05-12T01:39:35;99512.09;;;12.25;79.40
63903;BME280;50072;50.678;13.938;2023-05-12T01:42:02;99514.63;;;12.30;79.05
63903;BME280;50072;50.678;13.938;2023-05-12T01:44:28;99510.16;;;12.30;80.02
63903;BME280;50072;50.678;13.938;2023-05-12T01:46:54;99509.16;;;12.33;79.53
63903;BME280;50072;50.678;13.938;2023-05-12T01:49:21;99501.06;;;12.34;79.59
63903;BME280;50072;50.678;13.938;2023-05-12T01:51:47;99509.81;;;12.39;79.73
63903;BME280;50072;50.678;13.938;2023-05-12T01:54:13;99510.09;;;12.32;80.03
63903;BME280;50072;50.678;13.938;2023-05-12T01:56:39;99515.41;;;12.33;80.35
63903;BME280;50072;50.678;13.938;2023-05-12T01:59:05;99516.78;;;12.18;79.48
63903;BME280;50072;50.678;13.938;2023-05-12T02:01:31;99518.16;;;12.05;79.84
63903;BME280;50072;50.678;13.938;2023-05-12T02:03:57;99513.13;;;11.96;80.86
63903;BME280;50072;50.678;13.938;2023-05-12T02:06:24;99517.56;;;11.95;81.07
63903;BME280;50072;50.678;13.938;2023-05-12T02:08:50;99513.66;;;12.05;81.04
63903;BME280;50072;50.678;13.938;2023-05-12T02:11:16;99519.41;;;11.95;81.87
63903;BME280;50072;50.678;13.938;2023-05-12T02:13:42;99521.16;;;11.96;82.07
63903;BME280;50072;50.678;13.938;2023-05-12T02:16:12;99522.50;;;12.09;81.48
63903;BME280;50072;50.678;13.938;2023-05-12T02:18:38;99517.13;;;12.09;81.77
63903;BME280;50072;50.678;13.938;2023-05-12T02:21:04;99524.25;;;12.10;82.25
63903;BME280;50072;50.678;13.938;2023-05-12T02:23:30;99521.06;;;11.99;82.59
63903;BME280;50072;50.678;13.938;2023-05-12T02:25:56;99515.38;;;12.08;83.34
63903;BME280;50072;50.678;13.938;2023-05-12T02:28:22;99515.56;;;12.02;83.22
63903;BME280;50072;50.678;13.938;2023-05-12T02:30:49;99523.47;;;12.06;83.54
63903;BME280;50072;50.678;13.938;2023-05-12T02:33:19;99521.75;;;12.04;83.51
63903;BME280;50072;50.678;13.938;2023-05-12T02:35:46;99520.84;;;12.05;82.63
63903;BME280;50072;50.678;13.938;2023-05-12T02:38:12;99524.53;;;12.01;82.79
63903;BME280;50072;50.678;13.938;2023-05-12T02:40:38;99529.09;;;11.99;82.57
63903;BME280;50072;50.678;13.938;2023-05-12T02:43:04;99523.78;;;11.97;81.75
63903;BME280;50072;50.678;13.938;2023-05-12T02:45:31;99522.78;;;12.00;81.40
63903;BME280;50072;50.678;13.938;2023-05-12T02:47:56;99515.69;;;11.99;82.35
63903;BME280;50072;50.678;13.938;2023-05-12T02:50:22;99523.47;;;12.06;81.72
63903;BME280;50072;50.678;13.938;2023-05-12T02:52:49;99523.47;;;12.06;81.34
63903;BME280;50072;50.678;13.938;2023-05-12T02:55:15;99527.28;;;11.99;81.50
63903;BME280;50072;50.678;13.938;2023-05-12T02:57:42;99520.34;;;11.92;82.27
63903;BME280;50072;50.678;13.938;2023-05-12T03:00:08;99514.94;;;11.94;81.97
63903;BME280;50072;50.678;13.938;2023-05-12T03:02:35;99523.72;;;11.99;82.66
63903;BME280;50072;50.678;13.938;2023-05-12T03:05:02;99528.06;;;12.03;82.74
63903;BME280;50072;50.678;13.938;2023-05-12T03:07:27;99527.84;;;12.09;81.83
63903;BME280;50072;50.678;13.938;2023-05-12T03:09:54;99519.06;;;12.04;81.56
63903;BME280;50072;50.678;13.938;2023-05-12T03:12:19;99519.28;;;11.98;81.52
63903;BME280;50072;50.678;13.938;2023-05-12T03:14:47;99521.31;;;11.89;82.70
63903;BME280;50072;50.678;13.938;2023-05-12T03:17:13;99525.91;;;11.86;83.19
63903;BME280;50072;50.678;13.938;2023-05-12T03:19:38;99523.22;;;11.86;83.49
63903;BME280;50072;50.678;13.938;2023-05-12T03:22:04;99526.88;;;11.83;83.54
63903;BME280;50072;50.678;13.938;2023-05-12T03:24:32;99531.22;;;11.87;83.80
63903;BME280;50072;50.678;13.938;2023-05-12T03:26:58;99528.16;;;12.00;83.72
63903;BME280;50072;50.678;13.938;2023-05-12T03:29:25;99536.25;;;11.98;82.66
63903;BME280;50072;50.678;13.938;2023-05-12T03:31:51;99540.22;;;11.85;83.29
63903;BME280;50072;50.678;13.938;2023-05-12T03:34:17;99542.88;;;11.86;84.04
63903;BME280;50072;50.678;13.938;2023-05-12T03:36:43;99537.66;;;11.82;84.20
63903;BME280;50072;50.678;13.938;2023-05-12T03:39:10;99535.75;;;11.85;84.03
63903;BME280;50072;50.678;13.938;2023-05-12T03:41:37;99537.59;;;11.83;83.94
63903;BME280;50072;50.678;13.938;2023-05-12T03:44:03;99533.91;;;11.87;85.29
63903;BME280;50072;50.678;13.938;2023-05-12T03:46:33;99539.16;;;11.90;85.45
63903;BME280;50072;50.678;13.938;2023-05-12T03:48:59;99541.00;;;11.88;85.25
63903;BME280;50072;50.678;13.938;2023-05-12T03:51:25;99544.63;;;11.87;86.23
63903;BME280;50072;50.678;13.938;2023-05-12T03:53:52;99542.81;;;11.88;86.59
63903;BME280;50072;50.678;13.938;2023-05-12T03:56:18;99541.84;;;11.90;86.39
63903;BME280;50072;50.678;13.938;2023-05-12T03:58:44;99535.22;;;12.02;86.40
63903;BME280;50072;50.678;13.938;2023-05-12T04:01:13;99530.00;;;11.98;86.79
63903;BME280;50072;50.678;13.938;2023-05-12T04:03:39;99542.19;;;12.08;86.91
63903;BME280;50072;50.678;13.938;2023-05-12T04:06:05;99543.72;;;12.15;86.11
63903;BME280;50072;50.678;13.938;2023-05-12T04:08:32;99545.50;;;12.16;86.29
63903;BME280;50072;50.678;13.938;2023-05-12T04:10:59;99552.63;;;12.17;86.14
63903;BME280;50072;50.678;13.938;2023-05-12T04:13:27;99554.53;;;12.14;86.08
63903;BME280;50072;50.678;13.938;2023-05-12T04:15:57;99551.13;;;12.08;86.34
63903;BME280;50072;50.678;13.938;2023-05-12T04:18:25;99561.00;;;12.06;86.41
63903;BME280;50072;50.678;13.938;2023-05-12T04:20:52;99558.50;;;12.02;87.32
63903;BME280;50072;50.678;13.938;2023-05-12T04:23:18;99556.84;;;11.98;87.27
63903;BME280;50072;50.678;13.938;2023-05-12T04:25:44;99561.28;;;11.99;87.53
63903;BME280;50072;50.678;13.938;2023-05-12T04:28:10;99563.81;;;12.03;87.52
63903;BME280;50072;50.678;13.938;2023-05-12T04:30:40;99569.94;;;12.07;86.88
63903;BME280;50072;50.678;13.938;2023-05-12T04:33:09;99562.72;;;12.09;86.55
63903;BME280;50072;50.678;13.938;2023-05-12T04:35:35;99564.31;;;12.15;86.90
63903;BME280;50072;50.678;13.938;2023-05-12T04:38:01;99563.34;;;12.17;86.95
63903;BME280;50072;50.678;13.938;2023-05-12T04:40:28;99569.31;;;12.25;86.15
63903;BME280;50072;50.678;13.938;2023-05-12T04:42:54;99572.84;;;12.28;86.29
63903;BME280;50072;50.678;13.938;2023-05-12T04:45:20;99564.56;;;12.34;86.15
63903;BME280;50072;50.678;13.938;2023-05-12T04:47:46;99574.22;;;12.39;85.96
63903;BME280;50072;50.678;13.938;2023-05-12T04:50:11;99576.03;;;12.39;85.53
63903;BME280;50072;50.678;13.938;2023-05-12T04:52:37;99581.19;;;12.45;85.79
63903;BME280;50072;50.678;13.938;2023-05-12T04:55:04;99583.53;;;12.56;84.57
63903;BME280;50072;50.678;13.938;2023-05-12T04:57:30;99587.75;;;12.63;84.88
63903;BME280;50072;50.678;13.938;2023-05-12T04:59:56;99589.34;;;12.69;84.25
63903;BME280;50072;50.678;13.938;2023-05-12T05:02:24;99586.53;;;12.72;83.89
63903;BME280;50072;50.678;13.938;2023-05-12T05:04:50;99594.22;;;12.83;85.22
63903;BME280;50072;50.678;13.938;2023-05-12T05:07:17;99585.16;;;12.85;83.64
63903;BME280;50072;50.678;13.938;2023-05-12T05:09:43;99590.81;;;13.03;83.23
63903;BME280;50072;50.678;13.938;2023-05-12T05:12:09;99581.75;;;13.05;82.77
63903;BME280;50072;50.678;13.938;2023-05-12T05:14:35;99589.78;;;13.07;82.27
63903;BME280;50072;50.678;13.938;2023-05-12T05:17:01;99584.22;;;13.11;80.93
63903;BME280;50072;50.678;13.938;2023-05-12T05:19:28;99584.06;;;13.16;81.24
63903;BME280;50072;50.678;13.938;2023-05-12T05:21:54;99587.94;;;13.33;80.49
63903;BME280;50072;50.678;13.938;2023-05-12T05:24:20;99591.50;;;13.33;80.59
63903;BME280;50072;50.678;13.938;2023-05-12T05:26:46;99588.38;;;13.45;79.46
63903;BME280;50072;50.678;13.938;2023-05-12T05:29:14;99593.97;;;13.63;78.53
63903;BME280;50072;50.678;13.938;2023-05-12T05:31:42;99591.22;;;13.64;78.03
63903;BME280;50072;50.678;13.938;2023-05-12T05:34:09;99599.88;;;13.73;77.83
63903;BME280;50072;50.678;13.938;2023-05-12T05:36:35;99591.13;;;13.90;76.99
63903;BME280;50072;50.678;13.938;2023-05-12T05:39:03;99602.94;;;14.08;75.69
63903;BME280;50072;50.678;13.938;2023-05-12T05:41:29;99602.94;;;14.08;75.07
63903;BME280;50072;50.678;13.938;2023-05-12T05:43:56;99600.16;;;14.11;74.99
63903;BME280;50072;50.678;13.938;2023-05-12T05:46:22;99602.09;;;14.07;74.99
63903;BME280;50072;50.678;13.938;2023-05-12T05:48:48;99597.47;;;14.11;74.63
63903;BME280;50072;50.678;13.938;2023-05-12T05:51:14;99600.56;;;14.22;74.38
63903;BME280;50072;50.678;13.938;2023-05-12T05:53:41;99613.59;;;14.33;73.60
63903;BME280;50072;50.678;13.938;2023-05-12T05:56:07;99608.84;;;14.40;72.04
63903;BME280;50072;50.678;13.938;2023-05-12T05:58:34;99610.34;;;14.47;71.45
63903;BME280;50072;50.678;13.938;2023-05-12T06:01:00;99605.56;;;14.54;71.47
63903;BME280;50072;50.678;13.938;2023-05-12T06:03:26;99611.16;;;14.71;71.11
63903;BME280;50072;50.678;13.938;2023-05-12T06:05:52;99616.06;;;14.82;70.81
63903;BME280;50072;50.678;13.938;2023-05-12T06:08:18;99614.03;;;15.08;69.23
63903;BME280;50072;50.678;13.938;2023-05-12T06:10:44;99618.34;;;15.12;68.41
63903;BME280;50072;50.678;13.938;2023-05-12T06:13:10;99617.00;;;15.01;70.11
63903;BME280;50072;50.678;13.938;2023-05-12T06:15:36;99621.84;;;15.14;70.36
63903;BME280;50072;50.678;13.938;2023-05-12T06:18:02;99614.31;;;15.22;70.71
63903;BME280;50072;50.678;13.938;2023-05-12T06:20:28;99615.50;;;15.35;70.29
63903;BME280;50072;50.678;13.938;2023-05-12T06:22:54;99617.72;;;15.65;68.57
63903;BME280;50072;50.678;13.938;2023-05-12T06:25:20;99622.28;;;15.84;67.78
63903;BME280;50072;50.678;13.938;2023-05-12T06:27:45;99624.66;;;15.90;66.86
63903;BME280;50072;50.678;13.938;2023-05-12T06:30:11;99628.13;;;15.73;68.39
63903;BME280;50072;50.678;13.938;2023-05-12T06:32:37;99619.31;;;15.69;68.71
63903;BME280;50072;50.678;13.938;2023-05-12T06:35:04;99630.28;;;15.66;65.62
63903;BME280;50072;50.678;13.938;2023-05-12T06:37:30;99629.03;;;15.74;67.14
63903;BME280;50072;50.678;13.938;2023-05-12T06:39:56;99624.31;;;15.98;62.17
63903;BME280;50072;50.678;13.938;2023-05-12T06:42:22;99633.50;;;16.13;62.02
63903;BME280;50072;50.678;13.938;2023-05-12T06:44:48;99625.03;;;16.20;62.68
63903;BME280;50072;50.678;13.938;2023-05-12T06:47:13;99627.03;;;16.34;61.02
63903;BME280;50072;50.678;13.938;2023-05-12T06:49:39;99621.72;;;16.33;61.62
63903;BME280;50072;50.678;13.938;2023-05-12T06:52:06;99624.97;;;16.39;61.17
63903;BME280;50072;50.678;13.938;2023-05-12T06:54:32;99631.66;;;16.50;58.21
63903;BME280;50072;50.678;13.938;2023-05-12T06:56:58;99627.22;;;16.49;57.53
63903;BME280;50072;50.678;13.938;2023-05-12T06:59:24;99628.34;;;16.62;56.26
63903;BME280;50072;50.678;13.938;2023-05-12T07:01:49;99621.19;;;16.61;56.89
63903;BME280;50072;50.678;13.938;2023-05-12T07:04:15;99615.16;;;16.56;57.01
63903;BME280;50072;50.678;13.938;2023-05-12T07:06:41;99622.31;;;16.57;57.17
63903;BME280;50072;50.678;13.938;2023-05-12T07:09:07;99629.56;;;16.74;54.03
63903;BME280;50072;50.678;13.938;2023-05-12T07:11:33;99624.38;;;16.87;51.30
63903;BME280;50072;50.678;13.938;2023-05-12T07:13:59;99625.47;;;17.02;49.83
63903;BME280;50072;50.678;13.938;2023-05-12T07:16:24;99625.22;;;17.06;46.32
63903;BME280;50072;50.678;13.938;2023-05-12T07:18:50;99624.28;;;17.07;48.13
63903;BME280;50072;50.678;13.938;2023-05-12T07:21:16;99619.38;;;17.14;49.29
63903;BME280;50072;50.678;13.938;2023-05-12T07:23:43;99626.53;;;17.33;49.30
63903;BME280;50072;50.678;13.938;2023-05-12T07:26:09;99629.03;;;17.53;48.72
63903;BME280;50072;50.678;13.938;2023-05-12T07:28:35;99625.22;;;17.57;48.25
63903;BME280;50072;50.678;13.938;2023-05-12T07:31:04;99629.31;;;17.65;47.12
63903;BME280;50072;50.678;13.938;2023-05-12T07:33:32;99625.72;;;17.64;48.92
63903;BME280;50072;50.678;13.938;2023-05-12T07:35:59;99627.75;;;17.76;49.12
63903;BME280;50072;50.678;13.938;2023-05-12T07:38:25;99620.59;;;17.93;46.68
63903;BME280;50072;50.678;13.938;2023-05-12T07:40:51;99624.25;;;18.08;48.28
63903;BME280;50072;50.678;13.938;2023-05-12T07:43:17;99626.16;;;18.38;46.15
63903;BME280;50072;50.678;13.938;2023-05-12T07:45:44;99625.16;;;18.55;45.48
63903;BME280;50072;50.678;13.938;2023-05-12T07:48:12;99629.97;;;18.66;44.81
63903;BME280;50072;50.678;13.938;2023-05-12T07:50:39;99628.53;;;18.74;45.53
63903;BME280;50072;50.678;13.938;2023-05-12T07:53:05;99634.25;;;19.00;44.52
63903;BME280;50072;50.678;13.938;2023-05-12T07:55:31;99625.16;;;19.01;44.65
63903;BME280;50072;50.678;13.938;2023-05-12T07:58:04;99626.16;;;19.14;43.71
63903;BME280;50072;50.678;13.938;2023-05-12T08:00:29;99628.50;;;19.35;42.19
63903;BME280;50072;50.678;13.938;2023-05-12T08:02:55;99630.72;;;19.14;43.21
63903;BME280;50072;50.678;13.938;2023-05-12T08:05:21;99633.53;;;19.27;43.40
63903;BME280;50072;50.678;13.938;2023-05-12T08:07:47;99638.38;;;19.22;42.88
63903;BME280;50072;50.678;13.938;2023-05-12T08:10:12;99632.19;;;19.34;42.60
63903;BME280;50072;50.678;13.938;2023-05-12T08:12:39;99637.03;;;19.43;43.44
63903;BME280;50072;50.678;13.938;2023-05-12T08:15:06;99632.97;;;19.65;44.85
63903;BME280;50072;50.678;13.938;2023-05-12T08:17:32;99632.78;;;19.97;42.26
63903;BME280;50072;50.678;13.938;2023-05-12T08:19:58;99631.78;;;20.27;41.51
63903;BME280;50072;50.678;13.938;2023-05-12T08:22:24;99632.09;;;20.35;40.63
63903;BME280;50072;50.678;13.938;2023-05-12T08:24:50;99643.56;;;20.40;40.70
63903;BME280;50072;50.678;13.938;2023-05-12T08:27:18;99636.72;;;20.47;41.17
63903;BME280;50072;50.678;13.938;2023-05-12T08:29:45;99644.09;;;20.60;41.44
63903;BME280;50072;50.678;13.938;2023-05-12T08:32:11;99638.75;;;20.31;39.98
63903;BME280;50072;50.678;13.938;2023-05-12T08:34:37;99640.13;;;20.09;40.35
63903;BME280;50072;50.678;13.938;2023-05-12T08:37:03;99633.50;;;20.28;39.81
63903;BME280;50072;50.678;13.938;2023-05-12T08:39:29;99639.47;;;20.47;41.09
63903;BME280;50072;50.678;13.938;2023-05-12T08:44:39;99636.72;;;20.47;41.01
63903;BME280;50072;50.678;13.938;2023-05-12T08:47:05;99635.44;;;20.67;40.66
63903;BME280;50072;50.678;13.938;2023-05-12T08:49:34;99643.72;;;20.51;41.67
63903;BME280;50072;50.678;13.938;2023-05-12T08:52:01;99636.78;;;20.33;41.78
63903;BME280;50072;50.678;13.938;2023-05-12T08:54:28;99641.25;;;20.89;40.54
63903;BME280;50072;50.678;13.938;2023-05-12T08:56:54;99637.09;;;20.83;41.43
63903;BME280;50072;50.678;13.938;2023-05-12T08:59:22;99643.09;;;20.75;40.10
63903;BME280;50072;50.678;13.938;2023-05-12T09:01:49;99647.06;;;20.97;40.59
63903;BME280;50072;50.678;13.938;2023-05-12T09:04:15;99649.34;;;21.03;41.29
63903;BME280;50072;50.678;13.938;2023-05-12T09:06:42;99647.94;;;21.10;39.92
63903;BME280;50072;50.678;13.938;2023-05-12T09:09:09;99650.56;;;21.25;41.11
63903;BME280;50072;50.678;13.938;2023-05-12T09:11:37;99643.59;;;21.20;39.53
63903;BME280;50072;50.678;13.938;2023-05-12T09:14:11;99647.81;;;21.12;41.45
63903;BME280;50072;50.678;13.938;2023-05-12T09:16:44;99646.09;;;21.11;40.69
63903;BME280;50072;50.678;13.938;2023-05-12T09:19:10;99655.06;;;20.85;39.32
63903;BME280;50072;50.678;13.938;2023-05-12T09:21:36;99659.09;;;20.38;40.58
63903;BME280;50072;50.678;13.938;2023-05-12T09:24:04;99648.84;;;20.29;41.38
63903;BME280;50072;50.678;13.938;2023-05-12T09:26:43;99654.06;;;20.32;41.51
63903;BME280;50072;50.678;13.938;2023-05-12T09:29:09;99659.22;;;20.22;41.61
63903;BME280;50072;50.678;13.938;2023-05-12T09:31:36;99657.16;;;19.98;42.31
63903;BME280;50072;50.678;13.938;2023-05-12T09:34:07;99660.53;;;19.88;41.26
63903;BME280;50072;50.678;13.938;2023-05-12T09:36:34;99662.41;;;19.87;42.46
63903;BME280;50072;50.678;13.938;2023-05-12T09:39:02;99658.63;;;19.90;42.11
63903;BME280;50072;50.678;13.938;2023-05-12T09:41:39;99660.53;;;20.02;42.84
63903;BME280;50072;50.678;13.938;2023-05-12T09:44:06;99658.38;;;20.07;42.69
63903;BME280;50072;50.678;13.938;2023-05-12T09:46:33;99658.84;;;20.28;42.09
63903;BME280;50072;50.678;13.938;2023-05-12T09:48:59;99656.47;;;20.78;41.08
63903;BME280;50072;50.678;13.938;2023-05-12T09:51:27;99665.66;;;21.03;39.56
63903;BME280;50072;50.678;13.938;2023-05-12T09:53:53;99659.50;;;21.27;39.83
63903;BME280;50072;50.678;13.938;2023-05-12T09:56:20;99668.69;;;21.51;39.88
63903;BME280;50072;50.678;13.938;2023-05-12T09:58:47;99667.78;;;21.25;38.10
63903;BME280;50072;50.678;13.938;2023-05-12T10:01:18;99664.84;;;21.41;37.79
63903;BME280;50072;50.678;13.938;2023-05-12T10:03:45;99661.03;;;21.31;39.06
63903;BME280;50072;50.678;13.938;2023-05-12T10:06:27;99660.84;;;21.47;37.99
63903;BME280;50072;50.678;13.938;2023-05-12T10:09:19;99659.56;;;21.78;36.80
63903;BME280;50072;50.678;13.938;2023-05-12T10:11:46;99658.81;;;22.13;36.37
63903;BME280;50072;50.678;13.938;2023-05-12T10:14:13;99657.41;;;22.33;35.41
63903;BME280;50072;50.678;13.938;2023-05-12T10:16:44;99653.44;;;22.62;35.09
63903;BME280;50072;50.678;13.938;2023-05-12T10:19:11;99646.69;;;23.03;34.51
63903;BME280;50072;50.678;13.938;2023-05-12T10:21:38;99651.44;;;23.36;34.67
63903;BME280;50072;50.678;13.938;2023-05-12T10:24:04;99652.75;;;23.89;33.59
63903;BME280;50072;50.678;13.938;2023-05-12T10:26:33;99651.53;;;24.59;32.08
63903;BME280;50072;50.678;13.938;2023-05-12T10:29:00;99647.25;;;24.78;32.22
63903;BME280;50072;50.678;13.938;2023-05-12T10:31:27;99641.16;;;25.07;32.20
63903;BME280;50072;50.678;13.938;2023-05-12T10:33:59;99643.22;;;25.47;31.96
63903;BME280;50072;50.678;13.938;2023-05-12T10:36:26;99641.22;;;25.16;30.12
63903;BME280;50072;50.678;13.938;2023-05-12T10:38:52;99641.44;;;25.98;31.21
63903;BME280;50072;50.678;13.938;2023-05-12T10:41:32;99634.69;;;26.43;29.86
63903;BME280;50072;50.678;13.938;2023-05-12T10:43:58;99635.03;;;25.57;30.48
63903;BME280;50072;50.678;13.938;2023-05-12T10:46:25;99627.78;;;24.92;30.76
63903;BME280;50072;50.678;13.938;2023-05-12T10:48:55;99632.41;;;24.48;32.44
63903;BME280;50072;50.678;13.938;2023-05-12T10:54:09;99626.88;;;24.71;30.76
63903;BME280;50072;50.678;13.938;2023-05-12T10:59:20;99625.66;;;27.11;27.75
63903;BME280;50072;50.678;13.938;2023-05-12T11:04:51;99622.31;;;28.67;25.29
63903;BME280;50072;50.678;13.938;2023-05-12T11:07:23;99629.84;;;29.90;24.50
63903;BME280;50072;50.678;13.938;2023-05-12T11:09:54;99622.34;;;28.39;26.49
63903;BME280;50072;50.678;13.938;2023-05-12T11:12:21;99622.31;;;27.36;27.70
63903;BME280;50072;50.678;13.938;2023-05-12T11:14:47;99614.56;;;26.42;28.58
63903;BME280;50072;50.678;13.938;2023-05-12T11:17:13;99623.44;;;25.74;29.88
63903;BME280;50072;50.678;13.938;2023-05-12T11:19:44;99620.84;;;24.88;31.62
63903;BME280;50072;50.678;13.938;2023-05-12T11:22:11;99622.38;;;24.37;31.40
63903;BME280;50072;50.678;13.938;2023-05-12T11:24:39;99622.28;;;23.71;31.60
63903;BME280;50072;50.678;13.938;2023-05-12T11:27:10;99618.03;;;22.73;34.22
63903;BME280;50072;50.678;13.938;2023-05-12T11:29:36;99614.88;;;22.79;33.52
63903;BME280;50072;50.678;13.938;2023-05-12T11:32:05;99625.38;;;22.48;34.80
63903;BME280;50072;50.678;13.938;2023-05-12T11:34:30;99620.13;;;22.21;36.27
63903;BME280;50072;50.678;13.938;2023-05-12T11:36:56;99619.34;;;22.19;35.95
63903;BME280;50072;50.678;13.938;2023-05-12T11:39:24;99616.97;;;22.14;36.15
63903;BME280;50072;50.678;13.938;2023-05-12T11:41:50;99622.19;;;22.17;35.55
63903;BME280;50072;50.678;13.938;2023-05-12T11:44:19;99621.16;;;22.31;34.99
63903;BME280;50072;50.678;13.938;2023-05-12T11:47:00;99620.84;;;22.36;35.85
63903;BME280;50072;50.678;13.938;2023-05-12T11:49:27;99625.69;;;23.16;33.86
63903;BME280;50072;50.678;13.938;2023-05-12T11:51:57;99618.38;;;23.28;34.91
63903;BME280;50072;50.678;13.938;2023-05-12T11:54:23;99628.69;;;23.24;34.61
63903;BME280;50072;50.678;13.938;2023-05-12T11:56:51;99616.63;;;23.27;35.33
63903;BME280;50072;50.678;13.938;2023-05-12T11:59:30;99614.66;;;25.07;32.43
63903;BME280;50072;50.678;13.938;2023-05-12T12:01:58;99616.66;;;25.47;31.53
63903;BME280;50072;50.678;13.938;2023-05-12T12:04:38;99616.75;;;24.83;31.24
63903;BME280;50072;50.678;13.938;2023-05-12T12:07:06;99615.09;;;24.04;30.49
63903;BME280;50072;50.678;13.938;2023-05-12T12:09:39;99616.06;;;23.57;32.53
63903;BME280;50072;50.678;13.938;2023-05-12T12:12:07;99624.13;;;23.36;34.08
63903;BME280;50072;50.678;13.938;2023-05-12T12:14:35;99618.31;;;23.64;33.64
63903;BME280;50072;50.678;13.938;2023-05-12T12:17:02;99620.47;;;24.49;31.98
63903;BME280;50072;50.678;13.938;2023-05-12T12:19:28;99626.03;;;24.70;30.78
63903;BME280;50072;50.678;13.938;2023-05-12T12:21:55;99621.44;;;24.92;30.51
63903;BME280;50072;50.678;13.938;2023-05-12T12:24:22;99619.06;;;24.66;30.42
63903;BME280;50072;50.678;13.938;2023-05-12T12:26:48;99619.47;;;24.50;29.25
63903;BME280;50072;50.678;13.938;2023-05-12T12:29:14;99622.94;;;24.63;29.14
63903;BME280;50072;50.678;13.938;2023-05-12T12:31:39;99623.13;;;28.78;26.02
63903;BME280;50072;50.678;13.938;2023-05-12T12:34:05;99615.59;;;31.94;21.58
63903;BME280;50072;50.678;13.938;2023-05-12T12:36:32;99626.44;;;34.42;19.42
63903;BME280;50072;50.678;13.938;2023-05-12T12:38:58;99623.19;;;34.23;18.78
63903;BME280;50072;50.678;13.938;2023-05-12T12:41:24;99620.88;;;36.07;17.30
63903;BME280;50072;50.678;13.938;2023-05-12T12:43:50;99614.81;;;34.53;17.98
63903;BME280;50072;50.678;13.938;2023-05-12T12:46:17;99615.63;;;34.02;18.45
63903;BME280;50072;50.678;13.938;2023-05-12T12:48:43;99621.75;;;31.64;20.38
63903;BME280;50072;50.678;13.938;2023-05-12T12:51:09;99611.47;;;29.46;22.50
63903;BME280;50072;50.678;13.938;2023-05-12T12:53:35;99612.78;;;28.62;24.00
63903;BME280;50072;50.678;13.938;2023-05-12T12:56:03;99611.31;;;28.39;23.62
63903;BME280;50072;50.678;13.938;2023-05-12T12:58:29;99608.81;;;29.18;23.00
63903;BME280;50072;50.678;13.938;2023-05-12T13:00:55;99609.06;;;27.97;24.63
63903;BME280;50072;50.678;13.938;2023-05-12T13:03:22;99614.63;;;30.63;21.91